createdAt,value
2019-05-05T00:05:08.617Z,0.444336
2019-05-05T00:10:29.742Z,0.444336
2019-05-05T00:15:52.416Z,0.353699
2019-05-05T00:21:15.238Z,0.252991
2019-05-05T00:26:38.540Z,0.333557
2019-05-05T00:32:01.202Z,-0.089417
2019-05-05T00:37:25.624Z,-0.049133
2019-05-05T00:42:48.200Z,-0.028992
2019-05-05T00:48:11.953Z,0.252991
2019-05-05T00:53:34.680Z,-0.079346
2019-05-05T00:58:58.303Z,-0.451965
2019-05-05T01:04:21.042Z,-0.653381
2019-05-05T01:09:45.068Z,0.051575
2019-05-05T01:15:07.391Z,-0.270691
2019-05-05T01:20:30.063Z,-0.451965
2019-05-05T01:25:54.361Z,-0.210266
2019-05-05T01:31:15.320Z,-0.018921
2019-05-05T01:36:38.959Z,-0.018921
2019-05-05T01:42:02.245Z,0.051575
2019-05-05T01:47:25.473Z,-0.169983
2019-05-05T01:52:47.570Z,-0.270691
2019-05-05T01:58:10.214Z,-0.1297
2019-05-05T02:03:34.949Z,-0.200195
2019-05-05T02:08:57.522Z,-0.653381
2019-05-05T02:14:20.519Z,-0.834656
2019-05-05T02:19:44.511Z,-0.713806
2019-05-05T02:25:08.174Z,-0.522461
2019-05-05T02:30:30.826Z,-0.532532
2019-05-05T02:35:55.600Z,-0.552673
2019-05-05T02:41:17.559Z,-0.522461
2019-05-05T02:46:40.206Z,-0.774231
2019-05-05T02:52:04.827Z,-0.653381
2019-05-05T02:57:25.534Z,-0.63324
2019-05-05T03:02:48.225Z,-0.733948
2019-05-05T03:08:10.844Z,-0.673523
2019-05-05T03:13:34.444Z,-1.13678
2019-05-05T03:18:58.156Z,-1.277771
2019-05-05T03:24:20.793Z,-0.864868
2019-05-05T03:29:44.329Z,-1.13678
2019-05-05T03:35:07.703Z,-1.499329
2019-05-05T03:40:30.364Z,-1.469116
2019-05-05T03:45:53.797Z,-1.428833
2019-05-05T03:51:20.543Z,-1.318054
2019-05-05T03:56:38.292Z,-0.965576
2019-05-05T04:02:01.022Z,-1.13678
2019-05-05T04:07:24.255Z,-1.378479
2019-05-05T04:12:47.400Z,-1.539612
2019-05-05T04:18:10.141Z,-1.469116
2019-05-05T04:23:33.479Z,-0.895081
2019-05-05T04:28:55.414Z,-0.562744
2019-05-05T04:34:18.921Z,-0.451965
2019-05-05T04:39:41.544Z,-0.371399
2019-05-05T04:45:04.950Z,-0.603027
2019-05-05T04:50:28.322Z,-0.804443
2019-05-05T04:55:50.985Z,-0.341187
2019-05-05T05:01:15.611Z,0.081787
2019-05-05T05:06:38.959Z,0.313416
2019-05-05T05:12:03.799Z,0.353699
2019-05-05T05:17:24.846Z,0.696106
2019-05-05T05:22:47.940Z,0.99823
2019-05-05T05:28:10.596Z,1.260071
2019-05-05T05:33:34.400Z,1.390991
2019-05-05T05:38:56.958Z,1.38092
2019-05-05T05:44:19.678Z,1.461487
2019-05-05T05:49:43.962Z,1.713257
2019-05-05T05:55:05.129Z,2.035522
2019-05-05T06:00:28.892Z,2.267151
2019-05-05T06:05:53.988Z,2.549133
2019-05-05T06:11:15.872Z,2.972107
2019-05-05T06:16:38.537Z,3.163452
2019-05-05T06:22:03.492Z,3.526001
2019-05-05T06:27:25.714Z,3.7677
2019-05-05T06:32:48.407Z,4.160461
2019-05-05T06:38:11.071Z,4.39209
2019-05-05T06:43:34.770Z,4.744568
2019-05-05T06:48:56.485Z,4.956055
2019-05-05T06:54:19.273Z,4.986267
2019-05-05T06:59:43.701Z,4.956055
2019-05-05T07:05:04.652Z,5.056763
2019-05-05T07:10:28.304Z,5.509949
2019-05-05T07:15:50.993Z,5.741577
2019-05-05T07:21:14.198Z,5.872498
2019-05-05T07:26:37.370Z,5.489807
2019-05-05T07:32:00.112Z,5.691223
2019-05-05T07:37:23.870Z,5.812073
2019-05-05T07:42:48.027Z,6.083984
2019-05-05T07:48:13.609Z,6.376038
2019-05-05T07:53:35.694Z,6.809082
2019-05-05T07:58:59.303Z,7.191772
2019-05-05T08:04:24.033Z,7.685242
2019-05-05T08:09:44.693Z,8.098145
2019-05-05T08:15:07.332Z,8.79303
2019-05-05T08:20:30.018Z,9.014587
2019-05-05T08:25:54.054Z,8.430481
2019-05-05T08:31:15.583Z,8.319702
2019-05-05T08:36:39.578Z,9.155579
2019-05-05T08:42:04.257Z,9.195862
2019-05-05T08:47:28.150Z,9.54834
2019-05-05T08:52:48.748Z,10.384216
2019-05-05T08:58:11.409Z,9.890747
2019-05-05T09:03:34.073Z,9.477844
2019-05-05T09:08:57.713Z,9.93103
2019-05-05T09:14:20.435Z,10.444641
2019-05-05T09:19:44.842Z,9.075012
2019-05-05T09:25:06.703Z,7.886658
2019-05-05T09:30:29.332Z,7.846375
2019-05-05T09:35:53.937Z,7.765808
2019-05-05T09:41:14.619Z,7.765808
2019-05-05T09:46:39.607Z,9.407349
2019-05-05T09:52:00.016Z,10.112305
2019-05-05T09:57:23.683Z,9.598694
2019-05-05T10:02:45.433Z,9.487915
2019-05-05T10:08:08.657Z,9.185791
2019-05-05T10:13:33.197Z,9.830322
2019-05-05T10:18:54.788Z,9.497986
2019-05-05T10:24:27.628Z,10.364075
2019-05-05T10:29:43.994Z,10.474854
2019-05-05T10:35:04.860Z,10.464783
2019-05-05T10:40:28.486Z,9.346924
2019-05-05T10:45:51.752Z,7.423401
2019-05-05T10:51:14.383Z,7.232056
2019-05-05T10:56:37.944Z,7.604675
2019-05-05T11:02:01.321Z,7.876587
2019-05-05T11:07:24.000Z,8.339844
2019-05-05T11:12:47.623Z,8.883667
2019-05-05T11:18:10.356Z,8.490906
2019-05-05T11:23:34.519Z,8.279419
2019-05-05T11:28:55.756Z,8.460693
2019-05-05T11:34:19.289Z,9.014587
2019-05-05T11:39:42.003Z,9.185791
2019-05-05T11:45:04.628Z,9.850464
2019-05-05T11:50:28.253Z,10.021667
2019-05-05T11:55:50.894Z,9.951172
2019-05-05T12:01:14.140Z,10.897827
2019-05-05T12:06:37.726Z,11.451721
2019-05-05T12:12:00.411Z,11.794128
2019-05-05T12:17:24.263Z,12.841492
2019-05-05T12:22:45.627Z,14.694519
2019-05-05T12:28:08.282Z,13.506165
2019-05-05T12:33:31.006Z,14.603882
2019-05-05T12:38:54.550Z,15.026855
2019-05-05T12:44:17.196Z,15.621033
2019-05-05T12:49:39.857Z,16.618042
2019-05-05T12:55:04.921Z,14.895935
2019-05-05T13:00:25.175Z,15.147705
2019-05-05T13:05:47.821Z,12.146606
2019-05-05T13:11:10.490Z,11.381226
2019-05-05T13:16:33.901Z,10.776978
2019-05-05T13:21:57.583Z,10.112305
2019-05-05T13:27:20.419Z,10.112305
2019-05-05T13:32:44.052Z,10.253296
2019-05-05T13:38:05.703Z,10.68634
2019-05-05T13:43:28.372Z,11.008606
2019-05-05T13:48:51.008Z,11.69342
2019-05-05T13:54:13.724Z,11.411438
2019-05-05T13:59:37.366Z,11.572571
2019-05-05T14:05:00.152Z,11.129456
2019-05-05T14:10:23.613Z,10.354004
2019-05-05T14:15:45.452Z,10.102234
2019-05-05T14:21:09.177Z,9.890747
2019-05-05T14:26:32.339Z,10.162659
2019-05-05T14:31:55.799Z,10.323792
2019-05-05T14:37:17.236Z,10.43457
2019-05-05T14:42:39.933Z,10.646057
2019-05-05T14:48:03.933Z,10.978394
2019-05-05T14:53:25.250Z,11.230164
2019-05-05T14:58:48.902Z,11.703491
2019-05-05T15:04:13.351Z,11.643066
2019-05-05T15:09:35.238Z,11.451721
2019-05-05T15:14:57.977Z,10.948181
2019-05-05T15:20:21.609Z,11.18988
2019-05-05T15:25:44.667Z,12.9422
2019-05-05T15:31:07.983Z,15.71167
2019-05-05T15:36:33.119Z,14.049988
2019-05-05T15:41:55.400Z,12.740784
2019-05-05T15:47:18.017Z,13.808289
2019-05-05T15:52:40.643Z,12.045898
2019-05-05T15:58:03.637Z,11.461792
2019-05-05T16:03:29.754Z,12.18689
2019-05-05T16:08:49.616Z,15.439758
2019-05-05T16:14:14.313Z,15.177917
2019-05-05T16:19:34.954Z,15.510254
2019-05-05T16:24:58.600Z,13.103333
2019-05-05T16:30:23.421Z,13.82843
2019-05-05T16:35:43.965Z,13.355103
2019-05-05T16:41:06.587Z,14.120483
2019-05-05T16:46:29.304Z,15.218201
2019-05-05T16:51:51.924Z,13.284607
2019-05-05T16:57:14.606Z,11.643066
2019-05-05T17:02:38.222Z,10.615845
2019-05-05T17:08:00.942Z,10.726624
2019-05-05T17:13:27.992Z,10.293579
2019-05-05T17:18:50.687Z,9.709473
2019-05-05T17:24:14.093Z,9.649048
2019-05-05T17:29:37.018Z,9.558411
2019-05-05T17:34:59.675Z,9.67926
2019-05-05T17:40:24.120Z,9.487915
2019-05-05T17:45:44.984Z,9.367065
2019-05-05T17:51:08.624Z,9.226074
2019-05-05T17:56:31.262Z,9.095154
2019-05-05T18:01:54.104Z,8.984375
2019-05-05T18:07:21.116Z,9.004517
2019-05-05T18:12:41.309Z,8.934021
2019-05-05T18:18:04.354Z,8.883667
2019-05-05T18:23:27.681Z,8.853455
2019-05-05T18:28:50.346Z,8.803101
2019-05-05T18:34:13.445Z,8.732605
2019-05-05T18:39:36.778Z,8.641968
2019-05-05T18:44:59.553Z,8.370056
2019-05-05T18:50:24.249Z,8.208923
2019-05-05T18:55:45.123Z,8.067932
2019-05-05T19:01:07.780Z,8.128357
2019-05-05T19:06:34.370Z,8.128357
2019-05-05T19:11:55.203Z,8.098145
2019-05-05T19:17:17.867Z,7.947083
2019-05-05T19:22:43.432Z,7.846375
2019-05-05T19:28:04.756Z,7.443542
2019-05-05T19:33:28.016Z,7.151489
2019-05-05T19:38:50.839Z,6.869507
2019-05-05T19:44:14.640Z,6.728516
2019-05-05T19:49:39.144Z,6.567383
2019-05-05T19:54:59.878Z,6.114197
2019-05-05T20:00:23.419Z,5.842285
2019-05-05T20:05:46.186Z,5.509949
2019-05-05T20:11:07.996Z,5.288391
2019-05-05T20:16:30.651Z,5.036621
2019-05-05T20:21:54.355Z,4.835205
2019-05-05T20:27:15.997Z,4.573364
2019-05-05T20:32:38.640Z,4.351807
2019-05-05T20:38:01.317Z,4.311523
2019-05-05T20:43:23.973Z,4.170532
2019-05-05T20:48:46.848Z,4.069824
2019-05-05T20:54:09.929Z,4.079895
2019-05-05T20:59:34.216Z,4.069824
2019-05-05T21:04:55.202Z,3.596497
2019-05-05T21:10:17.923Z,3.153381
2019-05-05T21:15:40.574Z,2.992249
2019-05-05T21:21:04.477Z,3.616638
2019-05-05T21:26:26.972Z,3.556213
2019-05-05T21:31:49.594Z,3.374939
2019-05-05T21:37:14.101Z,2.992249
2019-05-05T21:42:35.094Z,3.01239
2019-05-05T21:47:58.727Z,3.022461
2019-05-05T21:53:21.399Z,2.810974
2019-05-05T21:58:44.865Z,2.800903
2019-05-05T22:04:07.483Z,2.659912
2019-05-05T22:09:30.109Z,2.37793
2019-05-05T22:14:54.991Z,2.216797
2019-05-05T22:20:17.499Z,1.894531
2019-05-05T22:25:40.401Z,1.824036
2019-05-05T22:31:04.632Z,2.247009
2019-05-05T22:36:27.333Z,2.50885
2019-05-05T22:41:50.801Z,2.730408
2019-05-05T22:47:13.885Z,2.951965
2019-05-05T22:52:37.091Z,3.072815
2019-05-05T22:57:59.804Z,3.203735
2019-05-05T23:03:24.359Z,3.254089
2019-05-05T23:08:45.334Z,3.193665
2019-05-05T23:14:08.840Z,3.254089
2019-05-05T23:19:33.628Z,3.254089
2019-05-05T23:24:55.285Z,3.354797
2019-05-05T23:30:17.927Z,3.203735
2019-05-05T23:35:43.230Z,3.13324
2019-05-05T23:41:04.311Z,3.042603
2019-05-05T23:46:27.891Z,2.76062
2019-05-05T23:51:49.564Z,2.498779
2019-05-05T23:57:13.740Z,2.116089
